Time;durP1;ratioP1;P1;durP2;ratioP2;P2;SDS_P1;SDS_P2;PMS_P1;PMS_P2;Temp;Humidity;BMP_temperature;BMP_pressure;BME280_temperature;BME280_humidity;BME280_pressure;Samples;Min_cycle;Max_cycle;Signal;HPM_P1;HPM_P2
2021/01/27 00:02:15;;;;;;;7.35;3.75;;;1.70;94.60;;;;;;4977732;28;20105;-80
2021/01/27 00:04:41;;;;;;;11.65;3.38;;;1.80;94.60;;;;;;4976468;28;20073;-80
2021/01/27 00:07:07;;;;;;;50.75;14.20;;;1.80;94.60;;;;;;4976097;28;21094;-80
2021/01/27 00:09:32;;;;;;;18.20;4.30;;;1.80;94.60;;;;;;4976501;28;20507;-80
2021/01/27 00:11:58;;;;;;;34.05;9.63;;;2.00;94.70;;;;;;4977867;28;20026;-80
2021/01/27 00:14:24;;;;;;;15.57;5.18;;;1.90;94.60;;;;;;4977549;28;20372;-80
2021/01/27 00:16:50;;;;;;;28.48;9.70;;;1.80;94.60;;;;;;4972581;28;20023;-80
2021/01/27 00:19:15;;;;;;;22.75;6.90;;;1.80;94.70;;;;;;4976170;28;20596;-80
2021/01/27 00:21:41;;;;;;;5.20;1.88;;;1.80;94.70;;;;;;4975809;28;20035;-80
2021/01/27 00:24:07;;;;;;;60.33;12.43;;;1.80;94.60;;;;;;4976211;28;20419;-81
2021/01/27 00:26:33;;;;;;;49.88;11.50;;;1.80;94.50;;;;;;4975992;28;20049;-80
2021/01/27 00:29:01;;;;;;;34.83;10.65;;;1.80;94.60;;;;;;4982912;28;20519;-80
2021/01/27 00:31:27;;;;;;;14.52;5.25;;;1.80;94.70;;;;;;4979044;28;20030;-80
2021/01/27 00:33:52;;;;;;;26.20;7.00;;;1.80;94.70;;;;;;4996787;28;20105;-80
2021/01/27 00:36:18;;;;;;;38.15;10.20;;;1.80;94.70;;;;;;4981229;28;20034;-80
2021/01/27 00:38:44;;;;;;;30.45;9.38;;;1.80;94.60;;;;;;4999952;28;20102;-80
2021/01/27 00:41:10;;;;;;;36.95;9.60;;;1.80;94.70;;;;;;4981167;28;20114;-80
2021/01/27 00:43:35;;;;;;;27.08;7.72;;;1.80;94.50;;;;;;4979191;28;20038;-80
2021/01/27 00:46:01;;;;;;;24.52;8.38;;;1.90;94.60;;;;;;4978710;28;20022;-80
2021/01/27 00:48:27;;;;;;;39.13;10.80;;;1.80;94.60;;;;;;4996392;28;20478;-80
2021/01/27 00:50:52;;;;;;;51.78;12.50;;;1.80;94.60;;;;;;4978863;28;20034;-80
2021/01/27 00:53:18;;;;;;;39.20;11.20;;;2.00;94.70;;;;;;4978713;28;20022;-80
2021/01/27 00:55:45;;;;;;;49.08;13.13;;;1.90;94.80;;;;;;4978729;28;20065;-80
2021/01/27 00:58:10;;;;;;;45.67;13.00;;;1.90;94.70;;;;;;4978907;28;20038;-80
2021/01/27 01:00:41;;;;;;;36.33;11.18;;;1.80;94.70;;;;;;4996127;28;20030;-80
2021/01/27 01:03:08;;;;;;;28.38;7.45;;;1.90;94.70;;;;;;4978929;28;20030;-80
2021/01/27 01:05:36;;;;;;;14.82;5.15;;;1.90;94.60;;;;;;4978296;28;20026;-80
2021/01/27 01:08:03;;;;;;;51.85;14.40;;;1.90;94.70;;;;;;4977338;28;20018;-80
2021/01/27 01:10:32;;;;;;;34.28;8.57;;;1.90;94.70;;;;;;4978526;28;20120;-80
2021/01/27 01:12:59;;;;;;;47.78;13.63;;;1.90;94.60;;;;;;4977811;28;20057;-80
2021/01/27 01:15:26;;;;;;;21.52;6.75;;;1.90;94.60;;;;;;4978640;28;20041;-80
2021/01/27 01:17:52;;;;;;;73.57;16.88;;;1.90;94.60;;;;;;4978022;28;20085;-80
2021/01/27 01:20:18;;;;;;;29.88;9.45;;;1.90;94.60;;;;;;4978000;28;20030;-80
2021/01/27 01:22:45;;;;;;;44.78;11.52;;;1.80;94.60;;;;;;4978042;28;20029;-80
2021/01/27 01:25:12;;;;;;;59.42;12.48;;;1.80;94.60;;;;;;4994388;28;20057;-80
2021/01/27 01:27:40;;;;;;;39.50;10.80;;;1.80;94.60;;;;;;4978115;28;20360;-80
2021/01/27 01:30:18;;;;;;;27.33;7.53;;;1.80;94.60;;;;;;4972431;28;20092;-80
2021/01/27 01:32:44;;;;;;;57.88;13.75;;;1.80;94.70;;;;;;4976644;28;20482;-80
2021/01/27 01:35:11;;;;;;;39.05;12.35;;;1.80;94.60;;;;;;4995391;28;20125;-80
2021/01/27 01:37:38;;;;;;;59.45;14.05;;;1.80;94.50;;;;;;4978155;28;20113;-80
2021/01/27 01:40:10;;;;;;;57.28;13.80;;;1.80;94.50;;;;;;4978024;28;20038;-80
2021/01/27 01:42:37;;;;;;;34.65;10.68;;;1.70;94.40;;;;;;4977804;28;20109;-80
2021/01/27 01:45:29;;;;;;;37.60;9.63;;;1.70;94.40;;;;;;4993213;28;20054;-80
2021/01/27 01:47:56;;;;;;;35.13;10.02;;;1.70;94.50;;;;;;4995284;28;20105;-80
2021/01/27 01:50:23;;;;;;;50.67;14.05;;;1.90;94.60;;;;;;4995234;28;20375;-80
2021/01/27 01:52:50;;;;;;;49.58;12.60;;;1.70;94.60;;;;;;4977522;28;20027;-79
2021/01/27 01:55:17;;;;;;;56.28;13.75;;;1.70;94.60;;;;;;4977552;28;20069;-80
2021/01/27 01:57:44;;;;;;;29.00;9.40;;;1.70;94.50;;;;;;4990034;28;20436;-79
2021/01/27 02:00:11;;;;;;;50.08;12.18;;;1.60;94.40;;;;;;4977593;28;20042;-80
2021/01/27 02:02:38;;;;;;;26.10;9.27;;;1.60;94.50;;;;;;4993710;28;20066;-79
2021/01/27 02:05:11;;;;;;;38.70;11.57;;;1.60;94.40;;;;;;4976283;28;20121;-79
2021/01/27 02:07:37;;;;;;;29.88;9.60;;;1.60;94.40;;;;;;4977516;28;20026;-80
2021/01/27 02:10:05;;;;;;;35.28;9.93;;;1.60;94.40;;;;;;4977342;28;20027;-80
2021/01/27 02:12:53;;;;;;;8.55;4.22;;;1.50;94.20;;;;;;4977612;28;20058;-80
2021/01/27 02:15:30;;;;;;;28.63;9.70;;;1.40;94.20;;;;;;4977374;28;20097;-80
2021/01/27 02:18:08;;;;;;;45.15;11.50;;;1.30;94.10;;;;;;4977258;28;20026;-80
2021/01/27 02:20:37;;;;;;;20.10;6.35;;;1.30;94.20;;;;;;4972883;28;20058;-80
2021/01/27 02:23:24;;;;;;;10.63;4.15;;;1.30;94.20;;;;;;4992976;28;20471;-79
2021/01/27 02:25:55;;;;;;;22.42;8.45;;;1.20;94.20;;;;;;4995091;28;20466;-79
2021/01/27 02:28:49;;;;;;;13.18;5.03;;;1.20;94.30;;;;;;4977132;28;20463;-80
2021/01/27 02:31:31;;;;;;;34.92;10.30;;;1.20;94.40;;;;;;4975271;28;20077;-81
2021/01/27 02:34:11;;;;;;;26.45;9.40;;;1.30;94.50;;;;;;4991099;28;20034;-80
2021/01/27 02:36:45;;;;;;;24.75;9.98;;;1.30;94.60;;;;;;4994724;28;20370;-80
2021/01/27 02:39:25;;;;;;;32.23;9.37;;;1.30;94.50;;;;;;4993921;28;20030;-80
2021/01/27 02:42:29;;;;;;;25.92;9.63;;;1.30;94.50;;;;;;4995594;28;20399;-80
2021/01/27 02:45:02;;;;;;;22.17;7.97;;;1.30;94.40;;;;;;4992492;28;20442;-79
2021/01/27 02:47:37;;;;;;;21.67;8.75;;;1.30;94.30;;;;;;4977284;28;20060;-80
2021/01/27 02:50:10;;;;;;;16.85;6.93;;;1.20;94.20;;;;;;4989143;28;20066;-79
2021/01/27 02:52:41;;;;;;;20.85;8.98;;;1.10;94.10;;;;;;4977022;28;20037;-79
2021/01/27 02:55:16;;;;;;;19.50;7.82;;;1.10;94.00;;;;;;4976799;28;20133;-79
2021/01/27 02:57:56;;;;;;;19.80;7.63;;;1.00;94.00;;;;;;4992995;28;20019;-80
2021/01/27 03:00:41;;;;;;;14.60;7.38;;;1.00;94.00;;;;;;4994390;28;20374;-80
2021/01/27 03:03:15;;;;;;;16.30;7.05;;;0.90;93.90;;;;;;4991986;28;20066;-79
2021/01/27 03:05:49;;;;;;;15.07;7.13;;;0.90;93.90;;;;;;4977190;28;20084;-80
2021/01/27 03:08:21;;;;;;;17.55;8.98;;;0.80;93.90;;;;;;4977052;28;20077;-80
2021/01/27 03:10:58;;;;;;;17.67;7.00;;;0.80;94.20;;;;;;4975597;28;20031;-79
2021/01/27 03:13:24;;;;;;;14.55;6.75;;;0.80;94.00;;;;;;4976584;28;20085;-79
2021/01/27 03:15:49;;;;;;;15.40;6.90;;;0.80;94.00;;;;;;4976611;28;20039;-79
2021/01/27 03:18:24;;;;;;;14.07;7.28;;;0.80;94.00;;;;;;4994089;28;20033;-79
2021/01/27 03:20:53;;;;;;;;;;;0.80;94.00;;;;;;4977321;28;20026;-79
2021/01/27 03:23:26;;;;;;;15.43;7.35;;;0.70;93.90;;;;;;4977258;28;20266;-79
2021/01/27 03:26:15;;;;;;;17.15;6.82;;;0.70;93.90;;;;;;4997994;28;20383;-79
2021/01/27 03:29:00;;;;;;;15.10;6.63;;;0.60;93.80;;;;;;4977913;28;20529;-79
2021/01/27 03:31:25;;;;;;;16.88;6.57;;;0.60;94.10;;;;;;4998221;28;20437;-78
2021/01/27 03:34:03;;;;;;;17.63;7.30;;;0.60;93.80;;;;;;4976241;28;20039;-78
2021/01/27 03:36:38;;;;;;;12.98;6.63;;;0.50;93.70;;;;;;4979430;28;20034;-78
2021/01/27 03:39:04;;;;;;;16.42;7.88;;;0.50;93.70;;;;;;4996898;28;20010;-78
2021/01/27 03:41:48;;;;;;;13.55;6.95;;;0.40;93.70;;;;;;4976248;28;20026;-78
2021/01/27 03:44:20;;;;;;;15.90;7.93;;;0.40;93.70;;;;;;4976353;28;20359;-77
2021/01/27 03:47:08;;;;;;;15.05;7.63;;;0.40;93.60;;;;;;4976430;28;20034;-77
2021/01/27 03:50:05;;;;;;;15.77;7.57;;;0.30;93.60;;;;;;4990363;28;20050;-78
2021/01/27 03:52:30;;;;;;;17.67;7.45;;;0.30;93.60;;;;;;4976544;28;20083;-77
2021/01/27 03:55:21;;;;;;;13.80;6.65;;;0.30;93.50;;;;;;4979649;28;20053;-78
2021/01/27 03:58:03;;;;;;;15.30;7.55;;;0.20;93.60;;;;;;4994600;28;20045;-78
2021/01/27 04:00:31;;;;;;;13.18;5.93;;;0.20;93.50;;;;;;4979461;28;20106;-78
2021/01/27 04:03:04;;;;;;;13.82;6.93;;;0.20;93.50;;;;;;4979826;28;20030;-77
2021/01/27 04:05:29;;;;;;;15.73;6.45;;;0.10;93.50;;;;;;4979572;28;20060;-77
2021/01/27 04:07:55;;;;;;;14.63;5.85;;;0.10;93.40;;;;;;4979604;28;20038;-77
2021/01/27 04:10:21;;;;;;;13.60;6.38;;;0.00;93.40;;;;;;4979353;28;20030;-77
2021/01/27 04:12:46;;;;;;;12.68;6.45;;;0.00;93.50;;;;;;4979808;28;20046;-77
2021/01/27 04:15:12;;;;;;;15.93;6.05;;;0.00;93.40;;;;;;4979331;28;20030;-77
2021/01/27 04:17:39;;;;;;;14.18;5.90;;;0.00;93.30;;;;;;4979337;28;20027;-77
2021/01/27 04:20:05;;;;;;;12.43;6.15;;;-0.10;93.30;;;;;;4996829;28;20030;-78
2021/01/27 04:22:31;;;;;;;16.55;6.65;;;-0.20;93.20;;;;;;4979194;28;20041;-78
2021/01/27 04:24:56;;;;;;;16.48;6.15;;;-0.20;93.20;;;;;;4979215;28;20034;-77
2021/01/27 04:27:23;;;;;;;16.17;6.50;;;-0.30;93.10;;;;;;4979200;28;20026;-78
2021/01/27 04:29:49;;;;;;;14.00;5.88;;;-0.30;93.10;;;;;;5000186;28;20392;-78
2021/01/27 04:32:14;;;;;;;14.10;6.25;;;-0.40;93.10;;;;;;4979156;28;20022;-78
2021/01/27 04:34:40;;;;;;;13.07;6.20;;;-0.40;93.20;;;;;;4998696;28;20042;-79
2021/01/27 04:37:06;;;;;;;12.73;6.05;;;-0.50;93.10;;;;;;4978853;28;20026;-79
2021/01/27 04:39:31;;;;;;;14.93;5.80;;;-0.50;93.10;;;;;;4979212;28;20586;-78
2021/01/27 04:41:57;;;;;;;12.07;5.65;;;-0.60;93.00;;;;;;4978895;28;20379;-79
2021/01/27 04:44:23;;;;;;;12.70;5.50;;;-0.60;93.00;;;;;;4996254;28;20084;-79
2021/01/27 04:47:07;;;;;;;15.85;6.90;;;-0.60;93.10;;;;;;4979292;28;20064;-79
2021/01/27 04:49:44;;;;;;;14.18;5.80;;;-0.70;93.00;;;;;;4978777;28;20014;-79
2021/01/27 04:52:28;;;;;;;11.23;5.43;;;-0.70;92.90;;;;;;4982300;28;20499;-79
2021/01/27 04:55:04;;;;;;;13.57;5.97;;;-0.80;92.90;;;;;;4977798;28;20037;-78
2021/01/27 04:57:47;;;;;;;13.75;6.03;;;-0.90;92.90;;;;;;4992110;28;20066;-78
2021/01/27 05:00:27;;;;;;;16.13;5.78;;;-0.90;92.90;;;;;;4996158;28;20426;-78
2021/01/27 05:03:13;;;;;;;12.35;5.38;;;-1.00;92.80;;;;;;4976210;28;20029;-79
2021/01/27 05:05:44;;;;;;;12.90;5.70;;;-1.00;92.80;;;;;;4992996;28;20110;-78
2021/01/27 05:08:15;;;;;;;10.20;5.25;;;-1.10;92.80;;;;;;4978612;28;20113;-78
2021/01/27 05:10:51;;;;;;;14.73;6.60;;;-1.10;92.80;;;;;;4978637;28;20593;-78
2021/01/27 05:13:57;;;;;;;15.75;7.13;;;-1.20;92.80;;;;;;4978506;28;20041;-78
2021/01/27 05:16:29;;;;;;;13.27;5.47;;;-1.20;92.80;;;;;;4938619;28;20027;-78
2021/01/27 05:18:57;;;;;;;12.88;5.57;;;-1.30;92.80;;;;;;4938788;28;20027;-78
2021/01/27 05:21:28;;;;;;;16.77;5.90;;;-1.30;92.90;;;;;;4959842;28;20057;-78
2021/01/27 05:23:55;;;;;;;12.30;6.10;;;-1.40;92.80;;;;;;4978240;28;20018;-78
2021/01/27 05:26:26;;;;;;;13.27;5.85;;;-1.40;92.90;;;;;;4978233;28;20053;-78
2021/01/27 05:29:18;;;;;;;15.15;6.32;;;-1.40;92.90;;;;;;4975483;28;20177;-78
2021/01/27 05:31:57;;;;;;;16.92;6.15;;;-1.50;92.90;;;;;;4973555;28;20442;-78
2021/01/27 05:34:28;;;;;;;11.40;5.05;;;-1.50;92.90;;;;;;4977683;28;20022;-79
2021/01/27 05:36:54;;;;;;;15.60;6.07;;;-1.50;93.00;;;;;;4990771;28;20026;-78
2021/01/27 05:39:27;;;;;;;12.57;5.90;;;-1.60;93.00;;;;;;4981943;28;20434;-78
2021/01/27 05:42:04;;;;;;;14.93;7.00;;;-1.60;93.00;;;;;;4995113;28;20022;-78
2021/01/27 05:44:30;;;;;;;13.50;5.68;;;-1.70;92.90;;;;;;4977947;28;20058;-78
2021/01/27 05:47:19;;;;;;;13.48;6.03;;;-1.70;93.00;;;;;;4977754;28;20072;-79
2021/01/27 05:49:45;;;;;;;14.32;6.07;;;-1.70;92.90;;;;;;4995453;28;20379;-79
2021/01/27 05:52:17;;;;;;;12.80;5.68;;;-1.70;92.90;;;;;;4977774;28;20028;-79
2021/01/27 05:54:43;;;;;;;17.83;6.18;;;-1.80;92.90;;;;;;4980440;28;20038;-79
2021/01/27 05:57:28;;;;;;;16.42;7.15;;;-1.80;93.00;;;;;;4977599;28;20089;-78
2021/01/27 06:00:29;;;;;;;14.95;5.93;;;-1.80;93.00;;;;;;4995031;28;20034;-79
2021/01/27 06:02:58;;;;;;;14.30;6.32;;;-1.90;93.00;;;;;;4976725;28;20161;-79
2021/01/27 06:05:38;;;;;;;16.45;6.57;;;-1.90;93.00;;;;;;4977639;28;20018;-79
2021/01/27 06:08:13;;;;;;;13.23;6.10;;;-1.90;93.00;;;;;;4977383;28;20370;-79
2021/01/27 06:10:39;;;;;;;18.83;7.72;;;-1.90;93.00;;;;;;4991257;28;20033;-78
2021/01/27 06:13:16;;;;;;;13.70;6.57;;;-2.00;93.00;;;;;;4980247;28;20030;-78
2021/01/27 06:15:42;;;;;;;17.95;7.53;;;-2.00;93.00;;;;;;4978243;28;20038;-79
2021/01/27 06:18:20;;;;;;;19.77;7.75;;;-2.00;93.10;;;;;;4977349;28;20034;-79
2021/01/27 06:20:46;;;;;;;17.92;6.97;;;-2.00;93.20;;;;;;4992295;28;20029;-79
2021/01/27 06:23:33;;;;;;;15.45;6.90;;;-2.00;93.20;;;;;;4977046;28;20030;-82
2021/01/27 06:26:35;;;;;;;18.80;7.32;;;-2.00;93.50;;;;;;4978213;28;20029;-88
2021/01/27 06:29:08;;;;;;;14.57;6.82;;;-2.00;93.20;;;;;;4938915;28;20039;-88
2021/01/27 06:31:48;;;;;;;18.95;7.50;;;-2.00;93.10;;;;;;4961221;28;20026;-84
2021/01/27 06:34:44;;;;;;;21.52;8.25;;;-2.10;93.10;;;;;;4957563;28;20384;-85
2021/01/27 06:37:25;;;;;;;16.83;6.95;;;-2.10;93.20;;;;;;4957620;28;20022;-86
2021/01/27 06:40:03;;;;;;;18.42;6.88;;;-2.00;93.30;;;;;;4960862;28;20378;-86
2021/01/27 06:42:53;;;;;;;19.02;8.13;;;-2.00;93.40;;;;;;4971548;28;20073;-86
2021/01/27 06:45:34;;;;;;;18.85;7.07;;;-2.00;93.40;;;;;;4954789;28;20015;-86
2021/01/27 06:48:21;;;;;;;15.80;6.97;;;-2.00;93.30;;;;;;4957593;28;20030;-86
2021/01/27 06:51:28;;;;;;;17.10;7.05;;;-2.00;93.20;;;;;;4972817;28;20034;-86
2021/01/27 06:54:16;;;;;;;20.20;7.15;;;-2.00;93.30;;;;;;4920487;28;20054;-86
2021/01/27 06:57:08;;;;;;;26.73;7.20;;;-2.00;93.30;;;;;;4975064;28;20121;-92
2021/01/27 07:00:03;;;;;;;15.95;6.18;;;-2.00;93.30;;;;;;4950178;28;20113;-87
2021/01/27 07:03:06;;;;;;;15.23;6.43;;;-2.00;93.30;;;;;;4974663;28;20431;-88
2021/01/27 07:05:57;;;;;;;17.38;7.45;;;-2.00;93.40;;;;;;4978014;28;20058;-91
2021/01/27 07:08:47;;;;;;;15.38;7.07;;;-2.00;93.40;;;;;;4972134;28;20041;-84
2021/01/27 07:11:48;;;;;;;16.05;7.95;;;-2.00;93.40;;;;;;4956197;28;20030;-85
2021/01/27 07:14:32;;;;;;;20.15;6.95;;;-2.00;93.30;;;;;;4922823;28;20034;-85
2021/01/27 07:17:13;;;;;;;15.23;7.40;;;-2.00;93.40;;;;;;4985655;28;20033;-86
2021/01/27 07:20:13;;;;;;;14.43;6.68;;;-1.90;93.40;;;;;;4964923;28;20282;-86
2021/01/27 07:23:08;;;;;;;17.25;7.28;;;-1.90;93.40;;;;;;4961872;28;20022;-89
2021/01/27 07:26:15;;;;;;;15.50;6.18;;;-1.90;93.40;;;;;;4962189;28;20078;-86
2021/01/27 07:28:49;;;;;;;24.88;6.32;;;-1.90;93.40;;;;;;4966052;28;20096;-87
2021/01/27 07:31:53;;;;;;;14.73;6.22;;;-1.90;93.50;;;;;;4979716;28;20029;-87
2021/01/27 07:34:35;;;;;;;22.50;8.20;;;-1.80;93.60;;;;;;4951015;28;20109;-87
2021/01/27 07:37:23;;;;;;;18.42;7.78;;;-1.80;93.60;;;;;;4969433;28;20065;-88
2021/01/27 07:39:59;;;;;;;20.25;8.05;;;-1.70;93.60;;;;;;4961272;28;20051;-87
2021/01/27 07:42:30;;;;;;;15.68;7.35;;;-1.50;93.60;;;;;;4959122;28;20030;-88
2021/01/27 07:44:58;;;;;;;19.77;8.13;;;-1.70;93.60;;;;;;4961511;28;20026;-87
2021/01/27 07:47:45;;;;;;;16.13;6.82;;;-1.60;93.70;;;;;;4961095;28;20082;-84
2021/01/27 07:50:12;;;;;;;18.27;8.63;;;-1.50;93.70;;;;;;4976596;28;20026;-84
2021/01/27 07:52:46;;;;;;;19.75;8.35;;;-1.40;93.70;;;;;;4960977;28;20031;-84
2021/01/27 07:55:14;;;;;;;18.55;8.23;;;-1.30;93.60;;;;;;4960624;28;20106;-84
2021/01/27 07:57:52;;;;;;;15.07;7.22;;;-1.30;93.60;;;;;;4977590;28;20494;-84
2021/01/27 08:00:22;;;;;;;16.40;8.13;;;-1.40;93.60;;;;;;4960402;28;20113;-86
2021/01/27 08:03:09;;;;;;;16.92;6.93;;;-1.30;93.70;;;;;;4960687;28;20121;-85
2021/01/27 08:05:39;;;;;;;21.15;9.07;;;-1.20;93.90;;;;;;4960464;28;20027;-84
2021/01/27 08:08:11;;;;;;;25.98;9.23;;;-1.10;94.00;;;;;;4960593;28;20023;-85
2021/01/27 08:10:40;;;;;;;19.85;9.20;;;-0.90;94.00;;;;;;4960751;28;20376;-84
2021/01/27 08:13:26;;;;;;;20.70;9.38;;;-0.80;94.00;;;;;;4965227;28;20118;-84
2021/01/27 08:16:16;;;;;;;17.40;7.80;;;-0.80;94.00;;;;;;4975969;28;20065;-84
2021/01/27 08:19:10;;;;;;;16.73;8.00;;;-0.70;94.00;;;;;;4959491;28;20027;-87
2021/01/27 08:21:45;;;;;;;21.48;9.00;;;-0.60;94.00;;;;;;4957193;28;20027;-87
2021/01/27 08:24:39;;;;;;;30.73;12.23;;;-0.50;94.10;;;;;;4960653;28;20411;-86
2021/01/27 08:27:11;;;;;;;22.77;10.35;;;-0.30;94.20;;;;;;4960443;28;20019;-85
2021/01/27 08:30:04;;;;;;;23.05;11.27;;;-0.20;94.20;;;;;;4965899;28;20125;-85
2021/01/27 08:32:35;;;;;;;30.25;13.15;;;-0.10;94.20;;;;;;4974190;28;20070;-86
2021/01/27 08:35:24;;;;;;;30.02;11.45;;;0.00;94.20;;;;;;4981178;28;20471;-86
2021/01/27 08:38:19;;;;;;;26.40;12.43;;;0.10;94.10;;;;;;4970755;28;20030;-86
2021/01/27 08:40:44;;;;;;;18.08;8.65;;;0.20;94.20;;;;;;4980972;28;20023;-86
2021/01/27 08:43:15;;;;;;;22.30;8.05;;;0.30;94.30;;;;;;4981279;28;20027;-85
2021/01/27 08:45:46;;;;;;;15.60;6.72;;;0.60;94.70;;;;;;4981215;28;20037;-85
2021/01/27 08:48:16;;;;;;;22.08;8.88;;;0.70;94.30;;;;;;4976073;28;20081;-85
2021/01/27 08:50:46;;;;;;;17.88;7.97;;;0.80;94.30;;;;;;4975770;28;20117;-83
2021/01/27 08:53:48;;;;;;;19.08;8.27;;;0.80;94.20;;;;;;4976743;28;20022;-83
2021/01/27 08:56:14;;;;;;;17.73;8.23;;;0.90;94.20;;;;;;4973999;28;20101;-84
2021/01/27 08:58:45;;;;;;;18.13;7.63;;;0.90;94.10;;;;;;4975343;28;20134;-84
2021/01/27 09:01:23;;;;;;;19.38;7.95;;;1.00;94.10;;;;;;4977321;28;20023;-84
2021/01/27 09:03:52;;;;;;;17.10;7.63;;;1.10;94.10;;;;;;4984148;28;20037;-85
2021/01/27 09:06:25;;;;;;;20.40;7.78;;;1.20;94.10;;;;;;4986195;28;20355;-88
2021/01/27 09:08:54;;;;;;;18.63;7.68;;;1.20;94.10;;;;;;4974395;28;20035;-88
2021/01/27 09:11:21;;;;;;;18.50;8.40;;;1.30;94.30;;;;;;4984201;28;20108;-90
2021/01/27 09:13:47;;;;;;;19.67;8.38;;;1.40;94.20;;;;;;4976000;28;20031;-83
2021/01/27 09:16:17;;;;;;;16.33;7.50;;;1.50;94.30;;;;;;4975409;28;20089;-83
2021/01/27 09:18:53;;;;;;;21.20;9.70;;;1.60;94.30;;;;;;4978222;28;20078;-84
2021/01/27 09:21:21;;;;;;;19.55;8.98;;;1.70;94.20;;;;;;4974926;28;20031;-83
2021/01/27 09:23:58;;;;;;;24.88;10.10;;;1.80;94.20;;;;;;4978782;28;20023;-85
2021/01/27 09:26:44;;;;;;;21.48;8.30;;;1.90;94.30;;;;;;4977652;28;20490;-82
2021/01/27 09:29:13;;;;;;;19.67;8.13;;;1.90;94.20;;;;;;4974373;28;20051;-83
2021/01/27 09:31:39;;;;;;;16.23;8.18;;;1.90;94.00;;;;;;4975199;28;20057;-84
2021/01/27 09:34:15;;;;;;;18.05;7.63;;;2.00;94.00;;;;;;4990811;28;20035;-84
2021/01/27 09:36:41;;;;;;;15.63;7.75;;;2.00;94.20;;;;;;4973433;28;20046;-83
2021/01/27 09:39:08;;;;;;;19.65;8.48;;;2.10;94.30;;;;;;4989199;28;20029;-84
2021/01/27 09:41:35;;;;;;;20.85;8.52;;;2.30;94.30;;;;;;4974829;28;20034;-84
2021/01/27 09:44:02;;;;;;;21.95;9.13;;;2.30;94.10;;;;;;4975822;28;20023;-83
2021/01/27 09:46:35;;;;;;;18.90;8.13;;;2.40;94.10;;;;;;4979520;28;20402;-81
2021/01/27 09:49:07;;;;;;;18.95;8.70;;;2.40;94.10;;;;;;4976332;28;20031;-82
2021/01/27 09:51:33;;;;;;;8.73;3.83;;;2.60;94.20;;;;;;4977958;28;20022;-81
2021/01/27 09:54:02;;;;;;;17.10;7.55;;;3.30;94.50;;;;;;4976260;28;20041;-82
2021/01/27 09:56:29;;;;;;;17.60;8.00;;;2.60;94.50;;;;;;4971744;28;20577;-85
2021/01/27 09:58:57;;;;;;;17.92;7.95;;;2.70;94.10;;;;;;4974421;28;20026;-82
2021/01/27 10:01:28;;;;;;;14.20;6.80;;;2.80;94.20;;;;;;4974642;28;20109;-84
2021/01/27 10:04:10;;;;;;;15.65;7.75;;;2.80;94.20;;;;;;4976412;28;20034;-82
2021/01/27 10:06:41;;;;;;;17.55;6.47;;;2.90;94.20;;;;;;4976015;28;20483;-82
2021/01/27 10:09:19;;;;;;;16.73;7.53;;;3.00;94.40;;;;;;4974218;28;20026;-82
2021/01/27 10:11:47;;;;;;;16.20;7.53;;;3.20;94.50;;;;;;4972231;28;20085;-82
2021/01/27 10:14:23;;;;;;;14.07;7.43;;;3.40;94.50;;;;;;4974017;28;20066;-81
2021/01/27 10:16:50;;;;;;;16.02;7.10;;;3.50;94.60;;;;;;4974093;28;20387;-81
2021/01/27 10:19:24;;;;;;;14.65;7.15;;;3.60;94.40;;;;;;4975338;28;20026;-81
2021/01/27 10:21:52;;;;;;;16.13;8.40;;;3.60;94.30;;;;;;4973985;28;20364;-81
2021/01/27 10:24:40;;;;;;;15.68;8.38;;;3.70;94.30;;;;;;4973941;28;20127;-81
2021/01/27 10:27:06;;;;;;;15.55;7.35;;;3.70;94.50;;;;;;4972434;28;20023;-81
2021/01/27 10:29:37;;;;;;;17.95;7.47;;;3.80;94.50;;;;;;4967034;28;20088;-81
2021/01/27 10:32:37;;;;;;;16.45;7.72;;;3.90;94.60;;;;;;4961364;28;20034;-81
2021/01/27 10:35:23;;;;;;;17.33;8.43;;;3.90;94.40;;;;;;4955205;28;20046;-81
2021/01/27 10:38:01;;;;;;;14.82;7.75;;;4.10;94.70;;;;;;4951178;28;20399;-81
2021/01/27 10:40:27;;;;;;;16.38;7.30;;;4.10;94.50;;;;;;4957969;28;20030;-81
2021/01/27 10:42:56;;;;;;;16.67;8.13;;;4.30;94.80;;;;;;4975179;28;20101;-81
2021/01/27 10:45:24;;;;;;;16.00;7.93;;;4.30;94.50;;;;;;4960506;28;20027;-81
2021/01/27 10:47:59;;;;;;;16.83;8.65;;;4.30;94.50;;;;;;4964829;28;20030;-81
2021/01/27 10:50:26;;;;;;;22.50;9.32;;;4.40;94.70;;;;;;4958150;28;20039;-81
2021/01/27 10:52:55;;;;;;;14.55;7.95;;;4.50;94.80;;;;;;4975159;28;20105;-81
2021/01/27 10:55:21;;;;;;;15.98;8.57;;;4.60;94.60;;;;;;4954019;28;20032;-80
2021/01/27 10:57:48;;;;;;;14.65;7.75;;;4.60;94.50;;;;;;4961395;28;20026;-82
2021/01/27 11:00:16;;;;;;;13.38;7.28;;;4.60;94.50;;;;;;4957192;28;20109;-81
2021/01/27 11:02:43;;;;;;;15.73;7.15;;;4.70;94.50;;;;;;4960022;28;20022;-81
2021/01/27 11:05:09;;;;;;;14.68;8.07;;;4.80;94.60;;;;;;4961673;28;20035;-81
2021/01/27 11:07:35;;;;;;;15.38;7.63;;;4.90;94.90;;;;;;4967901;28;20375;-81
2021/01/27 11:10:05;;;;;;;16.23;7.10;;;5.10;94.90;;;;;;4978165;28;20023;-81
2021/01/27 11:12:32;;;;;;;14.85;7.43;;;5.20;94.80;;;;;;4961412;28;20491;-81
2021/01/27 11:14:58;;;;;;;13.57;5.85;;;5.20;94.70;;;;;;4961544;28;20042;-81
2021/01/27 11:17:26;;;;;;;13.75;5.95;;;5.40;94.80;;;;;;4964138;28;20363;-81
2021/01/27 11:19:53;;;;;;;16.05;6.72;;;5.40;94.60;;;;;;4961535;28;20034;-81
2021/01/27 11:22:30;;;;;;;13.30;6.18;;;5.50;94.80;;;;;;4977067;28;20027;-82
2021/01/27 11:25:06;;;;;;;12.10;6.07;;;5.50;94.70;;;;;;4961080;28;20019;-82
2021/01/27 11:27:32;;;;;;;13.93;6.35;;;5.70;94.50;;;;;;4964296;28;20046;-82
2021/01/27 11:30:00;;;;;;;13.60;5.45;;;5.60;94.10;;;;;;4970878;28;20395;-82
2021/01/27 11:35:18;;;;;;;14.82;6.20;;;5.60;94.20;;;;;;4975339;28;20038;-82
2021/01/27 11:37:46;;;;;;;13.07;5.40;;;5.70;94.60;;;;;;4976898;28;20418;-82
2021/01/27 11:40:14;;;;;;;10.07;4.90;;;5.80;94.70;;;;;;4976556;28;20356;-81
2021/01/27 11:42:40;;;;;;;6.55;3.42;;;5.80;94.40;;;;;;4977094;28;20015;-81
2021/01/27 11:45:07;;;;;;;5.93;2.33;;;5.70;94.00;;;;;;4974308;28;20463;-82
2021/01/27 11:47:34;;;;;;;12.38;6.07;;;5.60;93.50;;;;;;4976816;28;20019;-82
2021/01/27 11:50:09;;;;;;;8.38;4.18;;;5.40;93.50;;;;;;4977331;28;20034;-84
2021/01/27 11:52:35;;;;;;;13.32;6.10;;;5.30;93.90;;;;;;4979081;28;20015;-82
2021/01/27 11:55:05;;;;;;;12.27;6.03;;;5.20;93.90;;;;;;4978163;28;20118;-82
2021/01/27 11:57:34;;;;;;;11.80;5.65;;;5.40;94.10;;;;;;4976553;28;20027;-82
2021/01/27 12:00:19;;;;;;;14.23;6.75;;;5.40;94.30;;;;;;4979100;28;20062;-83
2021/01/27 12:03:08;;;;;;;10.43;5.55;;;5.40;94.20;;;;;;4973952;28;20031;-83
2021/01/27 12:05:36;;;;;;;12.63;6.75;;;5.40;94.10;;;;;;4972893;28;20384;-83
2021/01/27 12:08:02;;;;;;;9.50;5.03;;;5.50;94.30;;;;;;4976650;28;20054;-83
2021/01/27 12:10:28;;;;;;;12.85;6.35;;;5.40;94.00;;;;;;4979492;28;20375;-82
2021/01/27 12:12:56;;;;;;;14.85;6.43;;;5.40;94.00;;;;;;4975166;28;20023;-83
2021/01/27 12:15:23;;;;;;;10.98;5.28;;;5.40;94.50;;;;;;4976168;28;20467;-82
2021/01/27 12:17:49;;;;;;;12.57;6.25;;;5.60;94.60;;;;;;4976622;28;20027;-83
2021/01/27 12:20:15;;;;;;;11.80;5.95;;;5.70;94.70;;;;;;4976276;28;20038;-83
2021/01/27 12:22:41;;;;;;;11.85;5.68;;;5.80;94.90;;;;;;4976299;28;20034;-84
2021/01/27 12:25:08;;;;;;;9.25;4.22;;;6.00;94.60;;;;;;4976074;28;20031;-83
2021/01/27 12:27:37;;;;;;;4.00;2.05;;;6.00;94.40;;;;;;4977570;28;20022;-82
2021/01/27 12:30:05;;;;;;;13.45;5.68;;;5.70;93.90;;;;;;4975855;28;20046;-81
2021/01/27 12:32:31;;;;;;;10.48;5.18;;;5.80;93.90;;;;;;4975546;28;20022;-83
2021/01/27 12:34:56;;;;;;;10.45;4.88;;;5.90;94.40;;;;;;4977278;28;20165;-83
2021/01/27 12:37:22;;;;;;;7.55;3.70;;;5.80;94.10;;;;;;4975800;28;20030;-82
2021/01/27 12:39:47;;;;;;;9.20;4.35;;;5.90;94.00;;;;;;4976122;28;20042;-84
2021/01/27 12:42:18;;;;;;;9.50;3.97;;;5.90;94.20;;;;;;4975789;28;20380;-82
2021/01/27 12:44:44;;;;;;;7.35;3.55;;;5.90;94.40;;;;;;4973203;28;20023;-84
2021/01/27 12:48:30;;;;;;;;;;;;;;;;;;;;;
2021/01/27 12:52:18;;;;;;;9.48;3.50;;;6.00;93.90;;;;;;4971437;28;20609;-83
2021/01/27 12:55:13;;;;;;;;;;;;;;;;;;;;;
2021/01/27 12:57:41;;;;;;;11.68;4.75;;;5.40;93.50;;;;;;4976576;28;20041;-83
2021/01/27 13:00:10;;;;;;;9.07;4.03;;;5.20;93.80;;;;;;4975844;28;20027;-83
2021/01/27 13:02:38;;;;;;;11.30;4.78;;;5.20;94.00;;;;;;4975677;28;20083;-83
2021/01/27 13:05:06;;;;;;;10.50;4.93;;;5.20;94.10;;;;;;4975562;28;20019;-83
2021/01/27 13:07:32;;;;;;;11.45;4.85;;;5.20;94.00;;;;;;4975271;28;20079;-83
2021/01/27 13:09:58;;;;;;;11.00;5.20;;;5.10;94.00;;;;;;4975578;28;20125;-85
2021/01/27 13:12:24;;;;;;;6.45;3.13;;;5.20;94.30;;;;;;4975498;28;20458;-84
2021/01/27 13:14:51;;;;;;;10.63;4.65;;;5.20;94.20;;;;;;4978025;28;20027;-84
2021/01/27 13:17:17;;;;;;;7.28;3.80;;;5.20;94.00;;;;;;4973519;28;20035;-84
2021/01/27 13:19:43;;;;;;;9.88;4.72;;;5.10;93.80;;;;;;4975265;28;20018;-84
2021/01/27 13:22:11;;;;;;;15.95;7.00;;;5.00;93.50;;;;;;4975041;28;20082;-82
2021/01/27 13:24:36;;;;;;;6.45;3.08;;;4.90;93.60;;;;;;4974254;28;20178;-82